createdAt,value
2018-08-19T00:02:04.112Z,12.90
2018-08-19T00:04:38.267Z,8.90
2018-08-19T00:07:12.322Z,12.20
2018-08-19T00:09:44.918Z,9.93
2018-08-19T00:12:44.497Z,15.47
2018-08-19T00:15:17.096Z,11.07
2018-08-19T00:17:50.628Z,10.60
2018-08-19T00:20:24.880Z,9.33
2018-08-19T00:22:57.513Z,12.63
2018-08-19T00:25:41.425Z,11.27
2018-08-19T00:28:16.459Z,12.32
2018-08-19T00:30:49.281Z,14.57
2018-08-19T00:33:24.165Z,15.77
2018-08-19T00:35:57.353Z,9.60
2018-08-19T00:38:30.188Z,13.67
2018-08-19T00:41:03.217Z,12.47
2018-08-19T00:43:35.600Z,15.00
2018-08-19T00:46:26.420Z,20.93
2018-08-19T00:48:59.816Z,14.30
2018-08-19T00:51:32.250Z,11.23
2018-08-19T00:54:07.328Z,12.73
2018-08-19T00:56:39.921Z,15.37
2018-08-19T00:59:14.373Z,17.10
2018-08-19T01:01:47.714Z,13.07
2018-08-19T01:04:20.421Z,12.07
2018-08-19T01:06:55.625Z,12.87
2018-08-19T01:09:30.949Z,14.43
2018-08-19T01:12:05.349Z,16.57
2018-08-19T01:14:39.301Z,14.70
2018-08-19T01:17:14.037Z,14.33
2018-08-19T01:19:54.996Z,12.23
2018-08-19T01:22:27.760Z,14.03
2018-08-19T01:25:00.906Z,20.17
2018-08-19T01:27:36.449Z,15.30
2018-08-19T01:30:18.477Z,11.63
2018-08-19T01:32:51.904Z,13.10
2018-08-19T01:35:39.028Z,12.97
2018-08-19T01:38:11.860Z,13.43
2018-08-19T01:40:44.393Z,13.20
2018-08-19T01:43:17.203Z,13.87
2018-08-19T01:45:49.752Z,14.50
2018-08-19T01:48:22.844Z,12.07
2018-08-19T01:50:57.011Z,12.83
2018-08-19T01:53:29.521Z,16.30
2018-08-19T01:56:03.398Z,16.70
2018-08-19T01:58:45.093Z,21.97
2018-08-19T02:01:17.701Z,17.00
2018-08-19T02:03:50.920Z,17.93
2018-08-19T02:06:23.639Z,13.67
2018-08-19T02:08:56.025Z,16.83
2018-08-19T02:11:31.657Z,12.57
2018-08-19T02:14:06.276Z,15.33
2018-08-19T02:16:39.148Z,13.93
2018-08-19T02:19:12.191Z,11.83
2018-08-19T02:21:45.678Z,16.40
2018-08-19T02:24:18.516Z,18.30
2018-08-19T02:26:51.753Z,15.67
2018-08-19T02:29:38.105Z,12.67
2018-08-19T02:32:10.878Z,17.17
2018-08-19T02:34:46.108Z,15.47
2018-08-19T02:37:18.681Z,15.97
2018-08-19T02:39:51.339Z,17.60
2018-08-19T02:42:32.001Z,15.33
2018-08-19T02:45:07.533Z,19.07
2018-08-19T02:47:40.463Z,15.03
2018-08-19T02:50:13.705Z,20.43
2018-08-19T02:52:46.233Z,19.83
2018-08-19T02:55:18.991Z,20.30
2018-08-19T02:58:11.514Z,15.77
2018-08-19T03:00:44.236Z,15.03
2018-08-19T03:03:18.596Z,15.33
2018-08-19T03:05:55.995Z,18.55
2018-08-19T03:08:29.780Z,20.53
2018-08-19T03:11:02.333Z,16.43
2018-08-19T03:13:36.175Z,18.57
2018-08-19T03:16:09.049Z,20.17
2018-08-19T03:18:41.704Z,20.83
2018-08-19T03:21:14.900Z,21.63
2018-08-19T03:23:52.788Z,27.97
2018-08-19T03:26:29.767Z,20.90
2018-08-19T03:29:19.307Z,15.23
2018-08-19T03:31:59.309Z,16.60
2018-08-19T03:34:31.876Z,17.35
2018-08-19T03:37:07.720Z,19.70
2018-08-19T03:39:40.733Z,21.03
2018-08-19T03:42:14.794Z,14.33
2018-08-19T03:44:48.307Z,15.90
2018-08-19T03:47:21.176Z,17.00
2018-08-19T03:49:53.644Z,17.10
2018-08-19T03:52:26.153Z,21.27
2018-08-19T03:54:59.097Z,15.27
2018-08-19T03:57:31.633Z,18.20
2018-08-19T04:00:06.394Z,15.33
2018-08-19T04:02:41.294Z,18.90
2018-08-19T04:05:13.910Z,20.20
2018-08-19T04:07:47.852Z,18.13
2018-08-19T04:10:20.897Z,12.65
2018-08-19T04:12:53.423Z,18.77
2018-08-19T04:15:27.009Z,12.60
2018-08-19T04:17:59.782Z,16.67
2018-08-19T04:20:33.191Z,13.17
2018-08-19T04:23:06.181Z,13.87
2018-08-19T04:25:40.000Z,16.23
2018-08-19T04:28:18.729Z,18.33
2018-08-19T04:30:52.154Z,15.83
2018-08-19T04:33:31.973Z,17.58
2018-08-19T04:36:04.548Z,15.93
2018-08-19T04:38:38.351Z,16.43
2018-08-19T04:41:15.864Z,19.50
2018-08-19T04:43:48.593Z,21.93
2018-08-19T04:46:35.354Z,24.17
2018-08-19T04:49:09.511Z,26.63
2018-08-19T04:51:42.285Z,23.57
2018-08-19T04:54:17.804Z,24.43
2018-08-19T04:56:51.353Z,23.73
2018-08-19T04:59:24.617Z,26.20
2018-08-19T05:01:57.816Z,18.90
2018-08-19T05:04:30.164Z,13.97
2018-08-19T05:07:04.802Z,21.60
2018-08-19T05:09:38.818Z,20.20
2018-08-19T05:12:11.649Z,26.13
2018-08-19T05:14:44.294Z,19.53
2018-08-19T05:17:18.352Z,21.33
2018-08-19T05:20:14.781Z,24.87
2018-08-19T05:22:47.230Z,26.03
2018-08-19T05:25:20.336Z,23.10
2018-08-19T05:28:08.688Z,22.97
2018-08-19T05:30:41.337Z,24.33
2018-08-19T05:33:15.215Z,21.80
2018-08-19T05:35:47.744Z,20.27
2018-08-19T05:38:20.577Z,25.37
2018-08-19T05:40:58.814Z,22.57
2018-08-19T05:43:32.252Z,24.60
2018-08-19T05:46:05.825Z,21.00
2018-08-19T05:49:03.685Z,19.60
2018-08-19T05:51:36.401Z,19.42
2018-08-19T05:54:09.391Z,20.70
2018-08-19T05:56:47.552Z,20.33
2018-08-19T05:59:20.102Z,18.67
2018-08-19T06:01:52.684Z,18.63
2018-08-19T06:04:25.402Z,18.13
2018-08-19T06:07:03.580Z,41.17
2018-08-19T06:09:36.849Z,17.02
2018-08-19T06:12:11.376Z,15.47
2018-08-19T06:14:44.753Z,17.47
2018-08-19T06:17:17.620Z,15.40
2018-08-19T06:19:59.802Z,18.43
2018-08-19T06:22:37.827Z,18.03
2018-08-19T06:25:11.516Z,17.37
2018-08-19T06:27:47.567Z,13.43
2018-08-19T06:30:20.180Z,16.90
2018-08-19T06:32:54.324Z,23.70
2018-08-19T06:35:27.242Z,18.90
2018-08-19T06:38:00.680Z,14.47
2018-08-19T06:40:33.320Z,18.60
2018-08-19T06:43:06.785Z,13.83
2018-08-19T06:45:39.293Z,19.63
2018-08-19T06:48:12.177Z,20.50
2018-08-19T06:50:45.904Z,18.37
2018-08-19T06:53:24.727Z,14.60
2018-08-19T06:55:58.260Z,16.30
2018-08-19T06:58:32.824Z,20.23
2018-08-19T07:01:07.672Z,17.13
2018-08-19T07:03:55.583Z,15.55
2018-08-19T07:06:28.810Z,16.40
2018-08-19T07:09:02.119Z,20.17
2018-08-19T07:12:09.423Z,14.57
2018-08-19T07:14:44.224Z,16.03
2018-08-19T07:17:18.122Z,13.27
2018-08-19T07:19:51.028Z,15.40
2018-08-19T07:22:23.574Z,13.63
2018-08-19T07:24:57.036Z,11.43
2018-08-19T07:27:32.276Z,13.57
2018-08-19T07:30:08.070Z,12.53
2018-08-19T07:32:40.905Z,11.85
2018-08-19T07:35:14.764Z,11.77
2018-08-19T07:37:47.436Z,12.23
2018-08-19T07:40:20.029Z,12.10
2018-08-19T07:43:02.061Z,9.33
2018-08-19T07:45:35.370Z,8.50
2018-08-19T07:48:08.316Z,11.37
2018-08-19T07:50:41.962Z,16.17
2018-08-19T07:53:16.005Z,8.70
2018-08-19T07:55:49.572Z,9.50
2018-08-19T07:58:52.044Z,9.17
2018-08-19T08:01:24.720Z,10.60
2018-08-19T08:03:57.371Z,11.73
2018-08-19T08:06:36.819Z,9.43
2018-08-19T08:09:11.600Z,11.90
2018-08-19T08:11:44.950Z,10.43
2018-08-19T08:14:23.384Z,8.47
2018-08-19T08:16:58.298Z,8.70
2018-08-19T08:19:33.029Z,8.43
2018-08-19T08:22:12.678Z,6.50
2018-08-19T08:24:46.004Z,9.07
2018-08-19T08:27:18.626Z,7.50
2018-08-19T08:29:52.450Z,7.60
2018-08-19T08:32:28.288Z,7.77
2018-08-19T08:35:02.440Z,6.57
2018-08-19T08:37:35.621Z,8.53
2018-08-19T08:40:11.750Z,7.93
2018-08-19T08:42:50.149Z,6.57
2018-08-19T08:45:38.508Z,7.63
2018-08-19T08:48:12.710Z,5.90
2018-08-19T08:50:46.482Z,6.20
2018-08-19T08:53:43.533Z,6.67
2018-08-19T08:56:18.399Z,8.40
2018-08-19T08:58:53.740Z,6.80
2018-08-19T09:01:26.560Z,6.23
2018-08-19T09:03:59.356Z,5.90
2018-08-19T09:06:32.463Z,6.87
2018-08-19T09:09:07.580Z,6.23
2018-08-19T09:11:40.804Z,9.83
2018-08-19T09:14:15.194Z,7.57
2018-08-19T09:16:53.532Z,10.27
2018-08-19T09:19:28.185Z,9.67
2018-08-19T09:22:05.049Z,8.27
2018-08-19T09:24:40.780Z,6.67
2018-08-19T09:27:17.131Z,7.47
2018-08-19T09:30:01.585Z,8.73
2018-08-19T09:33:02.520Z,9.10
2018-08-19T09:35:39.476Z,7.17
2018-08-19T09:38:25.344Z,7.80
2018-08-19T09:41:02.992Z,6.83
2018-08-19T09:43:36.300Z,7.67
2018-08-19T09:46:10.134Z,7.83
2018-08-19T09:48:43.521Z,8.65
2018-08-19T09:51:15.973Z,8.47
2018-08-19T09:53:51.080Z,7.03
2018-08-19T09:56:40.008Z,7.03
2018-08-19T09:59:17.421Z,8.13
2018-08-19T10:01:54.356Z,8.50
2018-08-19T10:04:28.301Z,8.37
2018-08-19T10:07:09.834Z,7.40
2018-08-19T10:09:46.613Z,8.57
2018-08-19T10:12:21.099Z,8.38
2018-08-19T10:14:55.729Z,9.13
2018-08-19T10:17:29.445Z,9.20
2018-08-19T10:20:02.193Z,7.93
2018-08-19T10:22:39.462Z,10.47
2018-08-19T10:25:14.167Z,9.13
2018-08-19T10:27:48.453Z,8.20
2018-08-19T10:30:21.754Z,8.50
2018-08-19T10:33:07.154Z,8.03
2018-08-19T10:36:40.004Z,11.40
2018-08-19T10:40:12.822Z,6.43
2018-08-19T10:42:46.193Z,7.77
2018-08-19T10:45:21.810Z,9.47
2018-08-19T10:47:57.922Z,8.13
2018-08-19T10:50:37.665Z,7.00
2018-08-19T10:53:17.317Z,8.57
2018-08-19T10:55:49.904Z,9.27
2018-08-19T10:58:23.044Z,9.87
2018-08-19T11:00:56.507Z,6.73
2018-08-19T11:03:33.605Z,7.43
2018-08-19T11:06:09.720Z,9.30
2018-08-19T11:08:53.805Z,7.60
2018-08-19T11:11:33.711Z,9.87
2018-08-19T11:14:13.366Z,7.67
2018-08-19T11:16:48.520Z,8.27
2018-08-19T11:19:32.499Z,8.25
2018-08-19T11:22:07.385Z,7.70
2018-08-19T11:24:39.816Z,6.27
2018-08-19T11:27:13.531Z,7.10
2018-08-19T11:29:47.121Z,7.03
2018-08-19T11:32:42.901Z,7.97
2018-08-19T11:35:45.120Z,7.18
2018-08-19T11:38:17.856Z,5.63
2018-08-19T11:40:51.817Z,6.03
2018-08-19T11:43:25.316Z,6.00
2018-08-19T11:45:58.829Z,7.87
2018-08-19T11:48:34.223Z,6.13
2018-08-19T11:51:07.660Z,5.70
2018-08-19T11:53:40.193Z,7.47
2018-08-19T11:56:13.212Z,8.33
2018-08-19T11:58:47.775Z,6.47
2018-08-19T12:01:23.675Z,6.20
2018-08-19T12:04:07.957Z,6.93
2018-08-19T12:06:41.459Z,7.45
2018-08-19T12:09:16.493Z,6.67
2018-08-19T12:11:49.897Z,8.07
2018-08-19T12:14:24.641Z,6.67
2018-08-19T12:17:01.970Z,7.72
2018-08-19T12:19:41.532Z,6.23
2018-08-19T12:22:15.978Z,5.80
2018-08-19T12:24:49.103Z,6.13
2018-08-19T12:27:25.495Z,6.87
2018-08-19T12:30:04.904Z,6.63
2018-08-19T12:32:37.602Z,6.73
2018-08-19T12:35:12.154Z,7.90
2018-08-19T12:37:45.859Z,6.07
2018-08-19T12:40:20.839Z,8.67
2018-08-19T12:42:54.089Z,7.47
2018-08-19T12:45:30.730Z,6.67
2018-08-19T12:48:04.989Z,7.13
2018-08-19T12:51:01.722Z,7.67
2018-08-19T12:53:35.786Z,7.50
2018-08-19T12:56:11.561Z,9.63
2018-08-19T12:58:50.721Z,7.20
2018-08-19T13:01:25.761Z,7.73
2018-08-19T13:04:01.617Z,7.57
2018-08-19T13:07:13.717Z,7.90
2018-08-19T13:09:55.556Z,6.87
2018-08-19T13:12:46.048Z,8.50
2018-08-19T13:15:18.861Z,8.97
2018-08-19T13:17:53.241Z,7.20
2018-08-19T13:20:27.426Z,7.43
2018-08-19T13:23:02.239Z,6.78
2018-08-19T13:25:36.572Z,7.30
2018-08-19T13:28:11.455Z,7.17
2018-08-19T13:30:44.283Z,8.13
2018-08-19T13:33:18.402Z,7.63
2018-08-19T13:35:51.611Z,8.33
2018-08-19T13:38:39.084Z,7.27
2018-08-19T13:41:14.225Z,6.90
2018-08-19T13:43:49.964Z,6.93
2018-08-19T13:46:26.042Z,6.17
2018-08-19T13:48:59.590Z,7.90
2018-08-19T13:51:33.500Z,7.10
2018-08-19T13:54:07.489Z,8.03
2018-08-19T13:56:42.764Z,6.40
2018-08-19T13:59:16.098Z,6.50
2018-08-19T14:01:49.144Z,7.25
2018-08-19T14:04:23.599Z,8.30
2018-08-19T14:07:07.992Z,10.47
2018-08-19T14:09:42.439Z,10.50
2018-08-19T14:12:16.481Z,6.77
2018-08-19T14:14:50.306Z,8.60
2018-08-19T14:17:24.922Z,7.67
2018-08-19T14:19:58.007Z,8.47
2018-08-19T14:22:32.714Z,9.63
2018-08-19T14:25:08.991Z,6.97
2018-08-19T14:27:42.594Z,7.13
2018-08-19T14:30:18.617Z,8.07
2018-08-19T14:32:53.548Z,7.37
2018-08-19T14:35:27.460Z,7.97
2018-08-19T14:38:01.340Z,7.60
2018-08-19T14:40:36.224Z,6.67
2018-08-19T14:43:10.296Z,6.70
2018-08-19T14:45:44.594Z,7.50
2018-08-19T14:48:18.240Z,7.40
2018-08-19T14:50:52.348Z,8.07
2018-08-19T14:53:25.114Z,8.70
2018-08-19T14:56:18.048Z,7.37
2018-08-19T14:58:54.725Z,7.33
2018-08-19T15:01:29.294Z,9.30
2018-08-19T15:04:04.762Z,8.47
2018-08-19T15:06:38.153Z,6.57
2018-08-19T15:09:23.066Z,8.57
2018-08-19T15:12:11.027Z,8.63
2018-08-19T15:14:49.338Z,7.37
2018-08-19T15:17:24.869Z,8.03
2018-08-19T15:19:58.373Z,7.97
2018-08-19T15:22:33.368Z,7.93
2018-08-19T15:25:07.529Z,12.10
2018-08-19T15:27:46.341Z,10.47
2018-08-19T15:30:27.247Z,10.83
2018-08-19T15:33:00.808Z,8.63
2018-08-19T15:35:35.207Z,7.37
2018-08-19T15:38:08.614Z,8.47
2018-08-19T15:40:48.681Z,10.60
2018-08-19T15:43:22.427Z,7.53
2018-08-19T15:46:03.451Z,8.90
2018-08-19T15:48:36.669Z,10.27
2018-08-19T15:51:10.642Z,12.07
2018-08-19T15:53:47.272Z,8.90
2018-08-19T15:56:22.608Z,8.33
2018-08-19T15:59:04.285Z,9.93
2018-08-19T16:01:40.869Z,9.80
2018-08-19T16:04:21.804Z,8.57
2018-08-19T16:06:55.413Z,11.93
2018-08-19T16:09:30.565Z,10.43
2018-08-19T16:12:04.252Z,10.50
2018-08-19T16:14:38.968Z,8.57
2018-08-19T16:17:11.525Z,9.53
2018-08-19T16:19:46.166Z,10.33
2018-08-19T16:22:21.843Z,9.33
2018-08-19T16:24:55.334Z,9.30
2018-08-19T16:27:43.938Z,11.15
2018-08-19T16:30:17.007Z,9.97
2018-08-19T16:32:50.476Z,10.67
2018-08-19T16:35:27.335Z,9.43
2018-08-19T16:38:01.733Z,10.67
2018-08-19T16:40:37.264Z,8.77
2018-08-19T16:43:10.095Z,8.63
2018-08-19T16:45:46.965Z,10.87
2018-08-19T16:48:24.338Z,9.57
2018-08-19T16:50:57.620Z,8.93
2018-08-19T16:53:34.643Z,9.67
2018-08-19T16:56:07.295Z,9.10
2018-08-19T16:58:49.383Z,9.07
2018-08-19T17:01:23.536Z,9.13
2018-08-19T17:03:56.556Z,10.30
2018-08-19T17:06:29.480Z,10.53
2018-08-19T17:09:03.996Z,11.10
2018-08-19T17:11:40.300Z,11.73
2018-08-19T17:14:16.807Z,9.60
2018-08-19T17:16:51.594Z,9.60
2018-08-19T17:19:33.801Z,9.23
2018-08-19T17:22:10.713Z,9.27
2018-08-19T17:24:43.541Z,11.00
2018-08-19T17:27:25.180Z,9.07
2018-08-19T17:30:20.062Z,8.23
2018-08-19T17:33:08.417Z,10.93
2018-08-19T17:35:47.642Z,9.37
2018-08-19T17:38:37.668Z,11.83
2018-08-19T17:41:11.882Z,8.63
2018-08-19T17:43:50.189Z,11.10
2018-08-19T17:46:22.915Z,12.97
2018-08-19T17:48:56.990Z,8.90
2018-08-19T17:51:37.144Z,7.90
2018-08-19T17:54:19.640Z,10.13
2018-08-19T17:56:52.457Z,8.82
2018-08-19T17:59:25.611Z,8.75
2018-08-19T18:02:00.403Z,8.80
2018-08-19T18:04:41.079Z,8.17
2018-08-19T18:07:19.527Z,6.67
2018-08-19T18:10:12.673Z,9.43
2018-08-19T18:12:45.777Z,8.05
2018-08-19T18:15:17.607Z,9.20
2018-08-19T18:18:04.615Z,7.07
2018-08-19T18:20:39.477Z,7.73
2018-08-19T18:23:18.958Z,8.63
2018-08-19T18:25:51.983Z,9.20
2018-08-19T18:28:42.170Z,9.10
2018-08-19T18:31:22.961Z,7.13
2018-08-19T18:34:02.134Z,7.37
2018-08-19T18:36:38.597Z,8.03
2018-08-19T18:39:15.681Z,9.70
2018-08-19T18:41:50.935Z,7.13
2018-08-19T18:44:24.449Z,8.60
2018-08-19T18:47:00.296Z,8.53
2018-08-19T18:49:37.745Z,7.80
2018-08-19T18:52:19.503Z,8.80
2018-08-19T18:54:55.137Z,7.80
2018-08-19T18:57:37.366Z,7.80
2018-08-19T19:00:15.163Z,8.83
2018-08-19T19:02:56.311Z,7.93
2018-08-19T19:05:43.895Z,9.13
2018-08-19T19:08:17.617Z,10.23
2018-08-19T19:10:57.638Z,10.20
2018-08-19T19:13:31.257Z,8.10
2018-08-19T19:16:03.757Z,7.37
2018-08-19T19:18:41.261Z,7.87
2018-08-19T19:21:14.940Z,12.37
2018-08-19T19:23:49.432Z,8.37
2018-08-19T19:26:29.943Z,8.90
2018-08-19T19:29:07.712Z,9.57
2018-08-19T19:31:41.543Z,9.97
2018-08-19T19:34:16.002Z,8.77
2018-08-19T19:36:52.052Z,8.50
2018-08-19T19:39:28.565Z,7.07
2018-08-19T19:42:09.436Z,8.40
2018-08-19T19:44:42.291Z,10.45
2018-08-19T19:47:17.826Z,10.33
2018-08-19T19:49:56.764Z,10.43
2018-08-19T19:52:31.826Z,8.93
2018-08-19T19:55:07.075Z,9.40
2018-08-19T19:57:39.846Z,11.10
2018-08-19T20:00:22.980Z,8.03
2018-08-19T20:02:56.100Z,10.83
2018-08-19T20:05:34.290Z,9.63
2018-08-19T20:08:09.312Z,9.95
2018-08-19T20:10:51.838Z,15.60
2018-08-19T20:13:24.868Z,9.33
2018-08-19T20:16:02.089Z,11.17
2018-08-19T20:18:37.930Z,12.60
2018-08-19T20:21:29.629Z,12.13
2018-08-19T20:24:04.836Z,9.70
2018-08-19T20:26:43.931Z,13.93
2018-08-19T20:29:19.896Z,11.10
2018-08-19T20:31:57.772Z,10.40
2018-08-19T20:34:37.436Z,10.70
2018-08-19T20:37:19.456Z,10.87
2018-08-19T20:39:52.315Z,13.27
2018-08-19T20:42:34.024Z,10.23
2018-08-19T20:45:17.356Z,11.33
2018-08-19T20:47:55.384Z,12.40
2018-08-19T20:50:28.632Z,10.00
2018-08-19T20:53:05.955Z,10.37
2018-08-19T20:55:41.464Z,9.83
2018-08-19T20:58:15.633Z,12.70
2018-08-19T21:00:51.055Z,11.13
2018-08-19T21:03:26.863Z,14.83
2018-08-19T21:06:00.308Z,13.70
2018-08-19T21:08:34.153Z,14.87
2018-08-19T21:11:08.704Z,13.33
2018-08-19T21:13:41.148Z,12.43
2018-08-19T21:16:15.229Z,13.00
2018-08-19T21:18:48.655Z,15.33
2018-08-19T21:21:23.734Z,12.63
2018-08-19T21:24:00.846Z,15.57
2018-08-19T21:26:35.258Z,14.63
2018-08-19T21:29:11.385Z,16.07
2018-08-19T21:31:45.594Z,12.53
2018-08-19T21:34:20.282Z,13.50
2018-08-19T21:36:53.497Z,13.70
2018-08-19T21:39:28.744Z,13.23
2018-08-19T21:42:04.178Z,14.90
2018-08-19T21:44:37.784Z,13.67
2018-08-19T21:47:11.164Z,15.60
2018-08-19T21:49:56.092Z,13.17
2018-08-19T21:52:33.493Z,11.60
2018-08-19T21:55:08.278Z,11.47
2018-08-19T21:57:42.181Z,11.40
2018-08-19T22:00:20.761Z,14.07
2018-08-19T22:03:00.437Z,12.63
2018-08-19T22:05:35.042Z,13.17
2018-08-19T22:08:10.342Z,14.43
2018-08-19T22:10:59.560Z,11.50
2018-08-19T22:13:34.630Z,12.17
2018-08-19T22:16:08.034Z,13.03
2018-08-19T22:18:49.466Z,12.10
2018-08-19T22:21:25.380Z,13.13
2018-08-19T22:23:59.739Z,13.80
2018-08-19T22:26:38.399Z,13.60
2018-08-19T22:29:19.722Z,12.17
2018-08-19T22:31:55.140Z,16.20
2018-08-19T22:34:37.132Z,10.30
2018-08-19T22:37:11.452Z,10.63
2018-08-19T22:39:48.929Z,10.50
2018-08-19T22:42:23.853Z,10.70
2018-08-19T22:44:56.590Z,10.13
2018-08-19T22:47:49.862Z,10.10
2018-08-19T22:50:30.696Z,11.30
2018-08-19T22:53:04.500Z,11.57
2018-08-19T22:55:37.345Z,9.23
2018-08-19T22:58:13.724Z,10.80
2018-08-19T23:00:48.299Z,13.17
2018-08-19T23:03:22.849Z,14.20
2018-08-19T23:06:01.784Z,12.17
2018-08-19T23:08:35.292Z,15.23
2018-08-19T23:11:11.695Z,14.50
2018-08-19T23:14:08.213Z,13.90
2018-08-19T23:16:40.814Z,15.53
2018-08-19T23:19:21.156Z,14.50
2018-08-19T23:21:55.720Z,17.37
2018-08-19T23:24:29.609Z,13.57
2018-08-19T23:27:04.716Z,14.90
2018-08-19T23:29:39.516Z,14.10
2018-08-19T23:32:12.163Z,13.47
2018-08-19T23:34:44.972Z,13.73
2018-08-19T23:37:17.532Z,17.93
2018-08-19T23:39:50.411Z,14.83
2018-08-19T23:42:25.019Z,14.60
2018-08-19T23:44:58.009Z,15.17
2018-08-19T23:47:30.592Z,16.03
2018-08-19T23:50:05.460Z,17.07
2018-08-19T23:52:37.720Z,15.93
2018-08-19T23:55:10.311Z,14.40
2018-08-19T23:57:45.459Z,14.37
